createdAt,value
2023-02-14T00:01:50.794Z,102444.63
2023-02-14T00:04:19.732Z,102437.66
2023-02-14T00:06:48.646Z,102430.89
2023-02-14T00:09:19.686Z,102425.24
2023-02-14T00:11:48.470Z,102421.96
2023-02-14T00:14:35.696Z,102425.00
2023-02-14T00:17:04.691Z,102423.98
2023-02-14T00:19:34.945Z,102410.59
2023-02-14T00:22:04.928Z,102400.80
2023-02-14T00:24:33.622Z,102398.83
2023-02-14T00:27:02.192Z,102397.54
2023-02-14T00:29:32.338Z,102398.58
2023-02-14T00:32:01.704Z,102392.08
2023-02-14T00:34:30.300Z,102385.80
2023-02-14T00:37:00.614Z,102391.61
2023-02-14T00:39:29.122Z,102389.71
2023-02-14T00:41:57.687Z,102384.81
2023-02-14T00:44:26.271Z,102386.91
2023-02-14T00:46:54.765Z,102388.10
2023-02-14T00:49:25.074Z,102388.52
2023-02-14T00:51:53.450Z,102386.11
2023-02-14T00:54:21.961Z,102386.55
2023-02-14T00:56:50.413Z,102382.77
2023-02-14T00:59:19.302Z,102375.86
2023-02-14T01:01:47.697Z,102376.16
2023-02-14T01:04:16.272Z,102369.12
2023-02-14T01:06:44.757Z,102358.43
2023-02-14T01:09:14.882Z,102351.45
2023-02-14T01:11:43.253Z,102350.86
2023-02-14T01:14:11.763Z,102356.45
2023-02-14T01:16:40.359Z,102353.05
2023-02-14T01:19:09.505Z,102346.91
2023-02-14T01:21:38.111Z,102349.70
2023-02-14T01:24:08.480Z,102359.25
2023-02-14T01:26:37.300Z,102348.80
2023-02-14T01:29:06.636Z,102342.48
2023-02-14T01:31:35.851Z,102341.61
2023-02-14T01:34:04.492Z,102355.16
2023-02-14T01:36:37.527Z,102350.41
2023-02-14T01:39:14.023Z,102352.66
2023-02-14T01:41:45.459Z,102350.98
2023-02-14T01:44:17.163Z,102350.65
2023-02-14T01:46:46.462Z,102349.63
2023-02-14T01:49:20.377Z,102346.50
2023-02-14T01:51:53.052Z,102349.55
2023-02-14T01:54:24.196Z,102354.23
2023-02-14T01:56:59.178Z,102361.58
2023-02-14T01:59:34.254Z,102359.55
2023-02-14T02:02:03.733Z,102360.49
2023-02-14T02:04:40.239Z,102360.41
2023-02-14T02:07:17.862Z,102354.67
2023-02-14T02:09:59.716Z,102343.58
2023-02-14T02:12:30.803Z,102345.23
2023-02-14T02:15:00.673Z,102344.70
2023-02-14T02:17:52.804Z,102344.75
2023-02-14T02:20:29.177Z,102341.50
2023-02-14T02:23:23.762Z,102335.16
2023-02-14T02:26:10.981Z,102334.70
2023-02-14T02:29:10.083Z,102339.17
2023-02-14T02:32:03.565Z,102343.02
2023-02-14T02:34:56.235Z,102335.95
2023-02-14T02:37:41.367Z,102326.74
2023-02-14T02:40:25.727Z,102327.84
2023-02-14T02:43:08.962Z,102328.55
2023-02-14T02:46:12.330Z,102331.08
2023-02-14T02:49:41.152Z,102327.34
2023-02-14T02:52:41.504Z,102327.51
2023-02-14T02:55:23.265Z,102329.02
2023-02-14T02:57:53.769Z,102324.70
2023-02-14T03:00:24.591Z,102324.09
2023-02-14T03:03:16.432Z,102319.71
2023-02-14T03:05:45.459Z,102321.29
2023-02-14T03:08:17.826Z,102330.95
2023-02-14T03:10:46.820Z,102336.04
2023-02-14T03:13:27.843Z,102326.80
2023-02-14T03:16:21.980Z,102327.52
2023-02-14T03:19:16.975Z,102325.70
2023-02-14T03:21:55.389Z,102320.92
2023-02-14T03:24:33.633Z,102317.93
2023-02-14T03:27:32.898Z,102309.79
2023-02-14T03:30:13.716Z,102309.39
2023-02-14T03:33:06.425Z,102305.80
2023-02-14T03:35:44.060Z,102302.16
2023-02-14T03:38:22.299Z,102303.36
2023-02-14T03:41:04.252Z,102296.42
2023-02-14T03:43:57.999Z,102296.18
2023-02-14T03:46:32.465Z,102296.67
2023-02-14T03:49:06.887Z,102293.73
2023-02-14T03:51:37.784Z,102286.23
2023-02-14T03:54:11.176Z,102285.58
2023-02-14T03:56:48.455Z,102288.20
2023-02-14T03:59:25.444Z,102289.65
2023-02-14T04:02:27.307Z,102279.27
2023-02-14T04:04:59.055Z,102270.45
2023-02-14T04:07:27.554Z,102266.51
2023-02-14T04:09:56.133Z,102268.53
2023-02-14T04:12:37.065Z,102266.30
2023-02-14T04:15:07.528Z,102268.35
2023-02-14T04:17:54.463Z,102268.34
2023-02-14T04:20:23.123Z,102261.33
2023-02-14T04:22:54.495Z,102256.05
2023-02-14T04:25:23.663Z,102257.30
2023-02-14T04:27:52.494Z,102264.46
2023-02-14T04:30:23.116Z,102269.12
2023-02-14T04:32:51.870Z,102277.77
2023-02-14T04:35:20.290Z,102276.78
2023-02-14T04:37:48.853Z,102282.39
2023-02-14T04:40:17.723Z,102276.80
2023-02-14T04:42:47.153Z,102272.27
2023-02-14T04:45:15.811Z,102272.80
2023-02-14T04:47:44.307Z,102271.83
2023-02-14T04:50:13.515Z,102271.72
2023-02-14T04:52:42.004Z,102269.00
2023-02-14T04:55:10.766Z,102270.40
2023-02-14T04:57:39.166Z,102264.92
2023-02-14T05:00:08.782Z,102270.84
2023-02-14T05:02:37.463Z,102277.73
2023-02-14T05:05:06.732Z,102277.63
2023-02-14T05:07:35.310Z,102276.55
2023-02-14T05:10:05.470Z,102275.23
2023-02-14T05:12:34.014Z,102275.69
2023-02-14T05:15:02.608Z,102278.08
2023-02-14T05:17:31.180Z,102273.94
2023-02-14T05:20:00.329Z,102276.09
2023-02-14T05:26:05.984Z,102282.56
2023-02-14T05:28:34.874Z,102279.21
2023-02-14T05:31:03.634Z,102282.73
2023-02-14T05:33:32.530Z,102280.38
2023-02-14T05:36:03.107Z,102278.46
2023-02-14T05:38:33.676Z,102273.85
2023-02-14T05:41:03.028Z,102277.75
2023-02-14T05:43:32.175Z,102280.38
2023-02-14T05:46:00.748Z,102282.58
2023-02-14T05:48:29.873Z,102291.12
2023-02-14T05:51:07.719Z,102293.58
2023-02-14T05:53:36.874Z,102286.64
2023-02-14T05:56:07.417Z,102293.27
2023-02-14T05:58:36.907Z,102291.95
2023-02-14T06:01:05.782Z,102295.72
2023-02-14T06:03:34.590Z,102296.11
2023-02-14T06:06:06.392Z,102298.56
2023-02-14T06:08:38.186Z,102291.49
2023-02-14T06:11:07.317Z,102289.23
2023-02-14T06:13:35.878Z,102291.38
2023-02-14T06:16:05.392Z,102291.20
2023-02-14T06:18:34.270Z,102289.15
2023-02-14T06:21:04.703Z,102284.69
2023-02-14T06:23:34.503Z,102286.37
2023-02-14T06:26:03.878Z,102285.14
2023-02-14T06:28:32.284Z,102285.34
2023-02-14T06:31:01.574Z,102275.23
2023-02-14T06:33:30.600Z,102276.39
2023-02-14T06:35:59.563Z,102274.89
2023-02-14T06:38:28.573Z,102266.17
2023-02-14T06:41:05.092Z,102269.71
2023-02-14T06:43:35.153Z,102266.44
2023-02-14T06:46:04.881Z,102265.42
2023-02-14T06:48:35.079Z,102264.02
2023-02-14T06:51:04.689Z,102256.13
2023-02-14T06:53:34.688Z,102253.05
2023-02-14T06:56:05.939Z,102260.51
2023-02-14T06:58:35.354Z,102256.95
2023-02-14T07:01:04.366Z,102255.45
2023-02-14T07:03:33.568Z,102252.18
2023-02-14T07:06:03.793Z,102251.55
2023-02-14T07:08:34.748Z,102254.75
2023-02-14T07:11:04.006Z,102264.95
2023-02-14T07:13:33.562Z,102261.38
2023-02-14T07:16:03.033Z,102260.83
2023-02-14T07:18:32.124Z,102256.88
2023-02-14T07:21:01.314Z,102262.48
2023-02-14T07:23:30.197Z,102264.60
2023-02-14T07:25:59.084Z,102268.63
2023-02-14T07:28:27.677Z,102273.96
2023-02-14T07:31:03.109Z,102272.13
2023-02-14T07:33:32.207Z,102262.70
2023-02-14T07:36:05.816Z,102271.70
2023-02-14T07:38:35.576Z,102270.67
2023-02-14T07:41:04.722Z,102265.42
2023-02-14T07:43:34.688Z,102263.41
2023-02-14T07:46:03.743Z,102271.83
2023-02-14T07:48:34.156Z,102270.78
2023-02-14T07:51:03.774Z,102265.75
2023-02-14T07:53:34.012Z,102271.28
2023-02-14T07:56:05.805Z,102266.98
2023-02-14T07:58:36.169Z,102269.80
2023-02-14T08:01:04.862Z,102276.57
2023-02-14T08:03:35.944Z,102266.42
2023-02-14T08:06:05.108Z,102269.41
2023-02-14T08:08:33.681Z,102269.71
2023-02-14T08:11:03.295Z,102270.06
2023-02-14T08:13:34.683Z,102269.89
2023-02-14T08:16:09.772Z,102276.77
2023-02-14T08:18:40.778Z,102279.20
2023-02-14T08:21:11.467Z,102280.14
2023-02-14T08:23:40.028Z,102275.14
2023-02-14T08:26:08.920Z,102278.01
2023-02-14T08:28:37.499Z,102277.96
2023-02-14T08:31:07.072Z,102276.54
2023-02-14T08:33:35.780Z,102274.54
2023-02-14T08:36:04.889Z,102294.03
2023-02-14T08:38:33.782Z,102284.05
2023-02-14T08:41:08.077Z,102285.45
2023-02-14T08:43:38.408Z,102278.29
2023-02-14T08:46:07.867Z,102283.53
2023-02-14T08:48:39.537Z,102282.98
2023-02-14T08:51:12.438Z,102283.67
2023-02-14T08:53:44.651Z,102289.80
2023-02-14T08:56:15.771Z,102276.92
2023-02-14T08:58:45.302Z,102282.36
2023-02-14T09:01:17.199Z,102282.00
2023-02-14T09:03:49.063Z,102288.83
2023-02-14T09:06:18.057Z,102287.64
2023-02-14T09:08:47.176Z,102291.72
2023-02-14T09:11:24.622Z,102290.83
2023-02-14T09:13:54.392Z,102293.96
2023-02-14T09:16:25.121Z,102285.95
2023-02-14T09:18:55.081Z,102284.16
2023-02-14T09:21:30.382Z,102294.29
2023-02-14T09:23:58.960Z,102283.24
2023-02-14T09:26:30.137Z,102290.62
2023-02-14T09:28:59.407Z,102288.35
2023-02-14T09:31:28.386Z,102287.55
2023-02-14T09:34:15.732Z,102291.06
2023-02-14T09:37:08.065Z,102286.77
2023-02-14T09:39:38.030Z,102288.59
2023-02-14T09:42:07.290Z,102289.30
2023-02-14T09:44:51.822Z,102292.20
2023-02-14T09:47:35.875Z,102290.99
2023-02-14T09:50:07.920Z,102288.56
2023-02-14T09:52:38.020Z,102293.84
2023-02-14T09:55:13.453Z,102288.63
2023-02-14T09:58:22.292Z,102283.02
2023-02-14T10:01:15.844Z,102284.35
2023-02-14T10:04:25.545Z,102275.78
2023-02-14T10:07:00.895Z,102284.48
2023-02-14T10:10:02.952Z,102282.64
2023-02-14T10:12:37.196Z,102286.43
2023-02-14T10:15:19.673Z,102284.08
2023-02-14T10:18:02.290Z,102291.89
2023-02-14T10:20:39.688Z,102282.73
2023-02-14T10:23:35.914Z,102283.48
2023-02-14T10:26:07.798Z,102286.55
2023-02-14T10:28:46.387Z,102276.79
2023-02-14T10:31:45.189Z,102270.84
2023-02-14T10:38:04.383Z,102274.20
2023-02-14T10:40:39.151Z,102272.09
2023-02-14T10:43:28.588Z,102276.66
2023-02-14T10:46:29.532Z,102269.84
2023-02-14T10:49:26.188Z,102266.62
2023-02-14T10:52:18.243Z,102266.23
2023-02-14T10:54:57.672Z,102270.61
2023-02-14T10:57:30.335Z,102268.13
2023-02-14T11:00:08.733Z,102270.42
2023-02-14T11:02:45.043Z,102265.36
2023-02-14T11:05:36.035Z,102268.81
2023-02-14T11:08:21.814Z,102255.83
2023-02-14T11:10:51.383Z,102261.84
2023-02-14T11:13:33.320Z,102262.71
2023-02-14T11:16:05.632Z,102265.80
2023-02-14T11:18:40.013Z,102263.45
2023-02-14T11:21:11.725Z,102259.36
2023-02-14T11:23:43.604Z,102255.23
2023-02-14T11:26:17.044Z,102261.38
2023-02-14T11:28:57.243Z,102257.39
2023-02-14T11:31:32.749Z,102263.92
2023-02-14T11:34:05.508Z,102255.80
2023-02-14T11:36:43.351Z,102253.75
2023-02-14T11:39:20.853Z,102247.44
2023-02-14T11:41:54.146Z,102243.73
2023-02-14T11:44:28.895Z,102233.53
2023-02-14T11:47:17.368Z,102230.59
2023-02-14T11:50:06.475Z,102232.73
2023-02-14T11:52:56.440Z,102226.18
2023-02-14T11:55:30.519Z,102236.48
2023-02-14T11:58:06.653Z,102223.13
2023-02-14T12:00:37.025Z,102223.52
2023-02-14T12:03:09.493Z,102219.20
2023-02-14T12:05:50.402Z,102212.87
2023-02-14T12:08:27.601Z,102209.38
2023-02-14T12:11:23.098Z,102210.52
2023-02-14T12:13:59.793Z,102211.48
2023-02-14T12:16:47.031Z,102211.86
2023-02-14T12:19:24.953Z,102214.98
2023-02-14T12:22:01.606Z,102216.70
2023-02-14T12:24:34.657Z,102210.56
2023-02-14T12:27:10.482Z,102212.77
2023-02-14T12:29:56.251Z,102205.83
2023-02-14T12:32:32.330Z,102198.91
2023-02-14T12:35:18.433Z,102201.56
2023-02-14T12:38:16.440Z,102201.42
2023-02-14T12:41:10.345Z,102200.16
2023-02-14T12:43:51.001Z,102196.77
2023-02-14T12:46:52.476Z,102199.29
2023-02-14T12:49:52.812Z,102205.83
2023-02-14T12:52:50.048Z,102209.23
2023-02-14T12:55:30.618Z,102208.00
2023-02-14T12:58:27.344Z,102211.46
2023-02-14T13:01:09.016Z,102209.78
2023-02-14T13:04:11.473Z,102208.30
2023-02-14T13:07:02.709Z,102214.13
2023-02-14T13:09:53.878Z,102203.15
2023-02-14T13:12:46.499Z,102197.64
2023-02-14T13:15:24.402Z,102200.44
2023-02-14T13:18:14.268Z,102204.89
2023-02-14T13:20:52.040Z,102197.05
2023-02-14T13:23:38.869Z,102190.74
2023-02-14T13:26:22.723Z,102194.70
2023-02-14T13:29:18.119Z,102194.60
2023-02-14T13:31:48.275Z,102196.06
2023-02-14T13:34:32.705Z,102187.17
2023-02-14T13:37:06.786Z,102183.24
2023-02-14T13:39:48.008Z,102185.35
2023-02-14T13:42:49.359Z,102191.66
2023-02-14T13:45:30.600Z,102196.19
2023-02-14T13:48:11.796Z,102192.05
2023-02-14T13:50:50.124Z,102203.69
2023-02-14T13:53:47.920Z,102194.11
2023-02-14T13:56:19.905Z,102192.38
2023-02-14T13:58:56.616Z,102204.73
2023-02-14T14:01:31.691Z,102203.13
2023-02-14T14:04:05.068Z,102204.16
2023-02-14T14:07:02.778Z,102205.52
2023-02-14T14:09:40.865Z,102203.10
2023-02-14T14:12:25.058Z,102198.84
2023-02-14T14:15:05.890Z,102193.25
2023-02-14T14:17:37.756Z,102197.50
2023-02-14T14:20:43.402Z,102197.96
2023-02-14T14:23:37.316Z,102199.23
2023-02-14T14:26:40.715Z,102195.64
2023-02-14T14:29:30.618Z,102192.98
2023-02-14T14:32:01.769Z,102186.14
2023-02-14T22:08:42.420Z,102503.70
2023-02-14T22:11:14.074Z,102505.12
2023-02-14T22:13:43.914Z,102506.59
2023-02-14T22:16:15.314Z,102505.70
2023-02-14T22:18:43.821Z,102509.42
2023-02-14T22:21:14.775Z,102511.95
2023-02-14T22:23:43.688Z,102515.86
2023-02-14T22:26:24.431Z,102517.53
2023-02-14T22:28:57.230Z,102521.77
2023-02-14T22:31:27.808Z,102521.61
2023-02-14T22:33:57.054Z,102523.15
2023-02-14T22:36:25.577Z,102525.70
2023-02-14T22:38:54.086Z,102521.20
2023-02-14T22:41:24.322Z,102522.96
2023-02-14T22:43:54.030Z,102523.71
2023-02-14T22:46:28.687Z,102525.02
2023-02-14T22:48:58.042Z,102525.17
2023-02-14T22:51:34.944Z,102527.52
2023-02-14T22:54:15.173Z,102525.49
2023-02-14T22:56:47.137Z,102526.94
2023-02-14T22:59:22.905Z,102533.65
2023-02-14T23:01:53.341Z,102530.24
2023-02-14T23:04:24.715Z,102530.92
2023-02-14T23:06:53.963Z,102532.75
2023-02-14T23:09:23.897Z,102529.84
2023-02-14T23:11:52.463Z,102533.34
2023-02-14T23:14:39.926Z,102530.88
2023-02-14T23:17:24.613Z,102530.60
2023-02-14T23:20:12.083Z,102527.83
2023-02-14T23:22:41.513Z,102527.66
2023-02-14T23:25:12.413Z,102528.83
2023-02-14T23:27:44.381Z,102529.37
2023-02-14T23:30:18.709Z,102533.83
2023-02-14T23:32:48.333Z,102537.15
2023-02-14T23:35:16.991Z,102538.14
2023-02-14T23:37:45.477Z,102540.12
2023-02-14T23:40:13.870Z,102539.70
2023-02-14T23:42:42.228Z,102542.33
2023-02-14T23:45:29.195Z,102537.84
2023-02-14T23:48:02.976Z,102538.13
2023-02-14T23:50:31.750Z,102535.86
2023-02-14T23:53:00.022Z,102535.81
2023-02-14T23:55:28.497Z,102536.20
2023-02-14T23:57:56.977Z,102536.41
